createdAt,value
2018-05-26T00:02:05.551Z,20.13
2018-05-26T00:04:34.663Z,20.22
2018-05-26T00:07:04.721Z,20.39
2018-05-26T00:09:34.606Z,20.43
2018-05-26T00:12:04.511Z,20.54
2018-05-26T00:14:33.686Z,20.84
2018-05-26T00:17:03.741Z,20.82
2018-05-26T00:19:32.853Z,20.69
2018-05-26T00:22:01.969Z,20.65
2018-05-26T00:24:31.170Z,20.76
2018-05-26T00:27:01.060Z,20.82
2018-05-26T00:29:30.223Z,20.80
2018-05-26T00:32:00.249Z,20.74
2018-05-26T00:34:29.402Z,20.69
2018-05-26T00:36:59.530Z,20.64
2018-05-26T00:39:28.636Z,20.60
2018-05-26T00:41:58.730Z,20.48
2018-05-26T00:44:28.597Z,20.45
2018-05-26T00:47:01.218Z,20.67
2018-05-26T00:49:31.097Z,21.00
2018-05-26T00:52:00.233Z,21.13
2018-05-26T00:54:29.352Z,21.27
2018-05-26T00:56:58.510Z,21.39
2018-05-26T00:59:28.430Z,21.42
2018-05-26T01:01:57.495Z,21.51
2018-05-26T01:04:26.630Z,21.54
2018-05-26T01:06:56.501Z,21.59
2018-05-26T01:09:25.609Z,21.56
2018-05-26T01:11:54.711Z,21.52
2018-05-26T01:14:23.838Z,21.53
2018-05-26T01:16:53.714Z,21.42
2018-05-26T01:19:22.837Z,21.23
2018-05-26T01:21:52.730Z,21.10
2018-05-26T01:24:21.853Z,21.18
2018-05-26T01:26:52.692Z,21.14
2018-05-26T01:29:22.564Z,21.10
2018-05-26T01:31:52.443Z,21.14
2018-05-26T01:34:21.544Z,21.20
2018-05-26T01:36:51.614Z,21.17
2018-05-26T01:39:20.731Z,21.19
2018-05-26T01:41:50.631Z,21.20
2018-05-26T01:44:20.539Z,21.18
2018-05-26T01:46:49.637Z,21.21
2018-05-26T01:49:18.824Z,21.22
2018-05-26T01:51:47.977Z,21.17
2018-05-26T01:54:17.961Z,21.22
2018-05-26T01:56:48.870Z,21.16
2018-05-26T01:59:18.017Z,21.27
2018-05-26T02:01:47.932Z,21.26
2018-05-26T02:04:17.867Z,21.24
2018-05-26T02:06:47.010Z,21.15
2018-05-26T02:09:16.130Z,20.99
2018-05-26T02:11:46.101Z,20.80
2018-05-26T02:14:15.203Z,20.89
2018-05-26T02:16:45.072Z,20.91
2018-05-26T02:19:14.183Z,20.89
2018-05-26T02:21:44.065Z,20.93
2018-05-26T02:24:13.940Z,20.96
2018-05-26T02:26:43.049Z,20.89
2018-05-26T02:29:13.124Z,20.83
2018-05-26T02:31:42.218Z,20.88
2018-05-26T02:34:12.263Z,20.92
2018-05-26T02:36:41.366Z,20.94
2018-05-26T02:39:11.475Z,20.79
2018-05-26T02:41:40.599Z,20.93
2018-05-26T02:44:09.688Z,21.02
2018-05-26T02:46:39.437Z,21.08
2018-05-26T02:49:09.010Z,21.13
2018-05-26T02:51:38.112Z,21.13
2018-05-26T02:54:08.184Z,21.06
2018-05-26T02:56:37.280Z,20.98
2018-05-26T02:59:06.404Z,20.89
2018-05-26T03:01:36.319Z,20.88
2018-05-26T03:04:05.811Z,20.84
2018-05-26T03:06:40.503Z,20.85
2018-05-26T03:09:15.119Z,20.84
2018-05-26T03:11:50.429Z,20.82
2018-05-26T03:14:25.813Z,20.70
2018-05-26T03:16:54.943Z,20.47
2018-05-26T03:19:24.813Z,20.58
2018-05-26T03:21:54.881Z,20.63
2018-05-26T03:24:24.760Z,20.68
2018-05-26T03:26:53.897Z,20.64
2018-05-26T03:29:25.752Z,20.51
2018-05-26T03:31:55.629Z,20.45
2018-05-26T03:34:24.727Z,20.33
2018-05-26T03:36:53.830Z,20.30
2018-05-26T03:39:23.067Z,20.44
2018-05-26T03:41:52.935Z,20.54
2018-05-26T03:44:23.022Z,20.51
2018-05-26T03:46:52.897Z,20.31
2018-05-26T03:49:22.001Z,20.44
2018-05-26T03:51:51.924Z,20.48
2018-05-26T03:54:21.796Z,20.59
2018-05-26T03:57:08.552Z,20.49
2018-05-26T04:03:03.137Z,20.45
2018-05-26T04:05:33.036Z,20.50
2018-05-26T04:08:02.131Z,20.59
2018-05-26T04:10:31.347Z,20.69
2018-05-26T04:13:00.425Z,20.71
2018-05-26T04:15:29.620Z,20.81
2018-05-26T04:17:58.731Z,20.96
2018-05-26T04:20:29.891Z,20.82
2018-05-26T04:22:59.810Z,20.90
2018-05-26T04:25:29.783Z,20.90
2018-05-26T04:27:58.894Z,20.92
2018-05-26T04:30:28.033Z,21.02
2018-05-26T04:32:57.177Z,21.07
2018-05-26T04:35:26.348Z,20.99
2018-05-26T04:37:56.925Z,21.00
2018-05-26T04:40:26.961Z,21.10
2018-05-26T04:42:56.862Z,21.00
2018-05-26T04:45:26.777Z,21.12
2018-05-26T04:47:56.673Z,21.06
2018-05-26T04:50:26.543Z,21.05
2018-05-26T04:52:55.635Z,21.04
2018-05-26T04:55:24.852Z,21.18
2018-05-26T04:57:53.960Z,21.26
2018-05-26T05:00:23.072Z,21.26
2018-05-26T05:02:52.183Z,21.34
2018-05-26T05:05:22.090Z,21.35
2018-05-26T05:07:51.231Z,21.35
2018-05-26T05:10:21.373Z,21.38
2018-05-26T05:12:50.463Z,21.41
2018-05-26T05:15:19.613Z,21.39
2018-05-26T05:17:48.715Z,21.43
2018-05-26T05:20:19.308Z,21.43
2018-05-26T05:22:48.437Z,21.43
2018-05-26T05:25:20.344Z,21.29
2018-05-26T05:27:49.462Z,21.24
2018-05-26T05:30:19.483Z,21.25
2018-05-26T05:32:48.606Z,21.27
2018-05-26T05:35:19.381Z,21.23
2018-05-26T05:37:48.510Z,21.22
2018-05-26T05:40:18.435Z,21.26
2018-05-26T05:42:47.570Z,21.28
2018-05-26T05:45:17.608Z,21.27
2018-05-26T05:47:46.762Z,21.28
2018-05-26T05:50:16.819Z,21.23
2018-05-26T05:52:46.733Z,21.13
2018-05-26T05:55:15.849Z,21.26
2018-05-26T05:57:44.960Z,21.34
2018-05-26T06:00:14.097Z,21.40
2018-05-26T06:02:44.039Z,21.46
2018-05-26T06:05:13.220Z,21.42
2018-05-26T06:07:43.093Z,21.51
2018-05-26T06:10:12.225Z,21.65
2018-05-26T06:12:43.038Z,21.69
2018-05-26T06:15:12.196Z,21.68
2018-05-26T06:17:41.307Z,21.60
2018-05-26T06:20:11.193Z,21.60
2018-05-26T06:22:40.336Z,21.78
2018-05-26T06:25:09.443Z,21.87
2018-05-26T06:27:39.557Z,21.99
2018-05-26T06:30:10.243Z,21.95
2018-05-26T06:32:39.383Z,22.06
2018-05-26T06:35:08.477Z,22.13
2018-05-26T06:37:38.389Z,22.24
2018-05-26T06:40:07.535Z,22.30
2018-05-26T06:42:37.664Z,22.33
2018-05-26T06:45:07.565Z,22.21
2018-05-26T06:47:36.733Z,22.30
2018-05-26T06:50:05.827Z,22.39
2018-05-26T06:52:35.716Z,22.52
2018-05-26T06:55:05.646Z,22.62
2018-05-26T06:57:34.766Z,22.70
2018-05-26T07:00:04.687Z,22.75
2018-05-26T07:02:33.832Z,22.76
2018-05-26T07:05:02.983Z,22.89
2018-05-26T07:07:32.857Z,22.99
2018-05-26T07:10:02.750Z,22.99
2018-05-26T07:12:31.865Z,22.97
2018-05-26T07:15:01.008Z,23.01
2018-05-26T07:17:30.908Z,23.13
2018-05-26T07:19:59.984Z,23.24
2018-05-26T07:22:29.880Z,23.33
2018-05-26T07:24:58.997Z,23.40
2018-05-26T07:27:28.127Z,23.43
2018-05-26T07:29:57.233Z,23.50
2018-05-26T07:32:26.381Z,23.60
2018-05-26T07:34:56.264Z,23.72
2018-05-26T07:37:26.462Z,23.82
2018-05-26T07:39:55.571Z,23.88
2018-05-26T07:42:25.458Z,23.93
2018-05-26T07:44:54.644Z,24.04
2018-05-26T07:47:24.529Z,24.11
2018-05-26T07:49:53.681Z,24.04
2018-05-26T07:52:24.478Z,24.04
2018-05-26T07:54:53.599Z,24.05
2018-05-26T07:57:24.107Z,24.10
2018-05-26T07:59:54.030Z,24.17
2018-05-26T08:02:23.910Z,24.25
2018-05-26T08:04:53.032Z,24.31
2018-05-26T08:07:22.160Z,24.38
2018-05-26T08:09:51.264Z,24.45
2018-05-26T08:12:21.147Z,24.50
2018-05-26T08:14:51.025Z,24.58
2018-05-26T08:17:20.255Z,24.66
2018-05-26T08:19:49.362Z,24.73
2018-05-26T08:22:18.730Z,24.82
2018-05-26T08:24:47.860Z,24.86
2018-05-26T08:27:19.723Z,24.89
2018-05-26T08:29:49.583Z,24.91
2018-05-26T08:32:19.494Z,25.02
2018-05-26T08:34:49.345Z,25.05
2018-05-26T08:37:18.781Z,25.09
2018-05-26T08:39:48.876Z,25.10
2018-05-26T08:42:18.854Z,25.23
2018-05-26T08:44:47.999Z,25.33
2018-05-26T08:47:19.135Z,25.39
2018-05-26T08:49:49.648Z,25.38
2018-05-26T08:52:19.637Z,25.45
2018-05-26T08:54:48.782Z,25.40
2018-05-26T08:57:19.599Z,25.34
2018-05-26T08:59:48.715Z,25.48
2018-05-26T09:02:19.646Z,25.60
2018-05-26T09:04:48.729Z,25.65
2018-05-26T09:07:18.892Z,25.68
2018-05-26T09:09:48.013Z,25.74
2018-05-26T09:12:17.228Z,25.74
2018-05-26T09:14:46.356Z,25.88
2018-05-26T09:17:15.493Z,26.03
2018-05-26T09:19:46.346Z,26.16
2018-05-26T09:22:15.470Z,26.33
2018-05-26T09:24:45.367Z,26.46
2018-05-26T09:27:14.502Z,26.47
2018-05-26T09:29:44.411Z,26.42
2018-05-26T09:32:14.266Z,26.32
2018-05-26T09:34:43.390Z,26.48
2018-05-26T09:37:12.502Z,26.50
2018-05-26T09:39:41.656Z,26.50
2018-05-26T09:42:10.746Z,26.62
2018-05-26T09:44:39.889Z,26.77
2018-05-26T09:47:08.979Z,26.94
2018-05-26T09:49:39.119Z,27.03
2018-05-26T09:52:09.009Z,27.16
2018-05-26T09:54:38.115Z,27.23
2018-05-26T09:57:07.231Z,27.19
2018-05-26T09:59:37.157Z,27.29
2018-05-26T10:02:06.286Z,27.31
2018-05-26T10:04:35.402Z,27.09
2018-05-26T10:07:04.530Z,27.12
2018-05-26T10:09:34.418Z,27.30
2018-05-26T10:12:03.552Z,27.46
2018-05-26T10:14:33.446Z,27.48
2018-05-26T10:17:03.351Z,27.40
2018-05-26T10:19:34.405Z,27.58
2018-05-26T10:22:03.585Z,27.84
2018-05-26T10:24:37.287Z,28.03
2018-05-26T10:27:06.478Z,28.27
2018-05-26T10:29:38.283Z,28.39
2018-05-26T10:32:08.188Z,28.44
2018-05-26T10:34:37.270Z,28.54
2018-05-26T10:37:07.193Z,28.66
2018-05-26T10:39:40.277Z,28.80
2018-05-26T10:42:09.369Z,28.80
2018-05-26T10:44:42.545Z,28.82
2018-05-26T10:47:11.739Z,28.86
2018-05-26T10:49:42.773Z,28.77
2018-05-26T10:52:11.898Z,28.82
2018-05-26T10:54:41.781Z,28.83
2018-05-26T10:57:10.900Z,28.81
2018-05-26T10:59:39.995Z,28.89
2018-05-26T11:02:09.893Z,28.94
2018-05-26T11:04:39.907Z,28.80
2018-05-26T11:07:09.083Z,28.91
2018-05-26T11:09:38.265Z,29.02
2018-05-26T11:12:07.383Z,29.09
2018-05-26T11:14:37.455Z,29.19
2018-05-26T11:17:06.591Z,29.10
2018-05-26T11:19:36.648Z,29.17
2018-05-26T11:22:06.525Z,29.18
2018-05-26T11:24:35.706Z,29.27
2018-05-26T11:27:04.826Z,29.40
2018-05-26T11:29:34.870Z,29.52
2018-05-26T11:32:04.017Z,29.54
2018-05-26T11:34:34.072Z,29.43
2018-05-26T11:37:03.165Z,29.46
2018-05-26T11:39:32.332Z,29.31
2018-05-26T11:42:01.434Z,29.35
2018-05-26T11:44:31.406Z,29.40
2018-05-26T11:47:01.298Z,29.42
2018-05-26T11:49:30.410Z,29.64
2018-05-26T11:51:59.534Z,29.83
2018-05-26T11:54:28.672Z,29.98
2018-05-26T11:56:57.771Z,30.14
2018-05-26T11:59:26.878Z,30.22
2018-05-26T12:01:56.036Z,30.15
2018-05-26T12:04:25.875Z,30.20
2018-05-26T12:06:55.775Z,30.26
2018-05-26T12:09:24.895Z,30.37
2018-05-26T12:11:54.058Z,30.42
2018-05-26T12:14:23.196Z,30.49
2018-05-26T12:16:54.266Z,30.54
2018-05-26T12:19:24.172Z,30.36
2018-05-26T12:21:53.303Z,30.47
2018-05-26T12:24:23.167Z,30.48
2018-05-26T12:26:52.301Z,30.30
2018-05-26T12:29:22.199Z,30.52
2018-05-26T12:31:52.097Z,30.50
2018-05-26T12:34:21.214Z,30.53
2018-05-26T12:36:52.029Z,30.64
2018-05-26T12:39:21.149Z,30.76
2018-05-26T12:41:51.066Z,30.90
2018-05-26T12:44:20.921Z,30.88
2018-05-26T12:46:50.794Z,30.74
2018-05-26T12:49:20.692Z,30.76
2018-05-26T12:51:49.849Z,30.76
2018-05-26T12:54:19.337Z,30.84
2018-05-26T12:56:48.500Z,30.80
2018-05-26T12:59:19.645Z,30.82
2018-05-26T13:01:48.768Z,31.04
2018-05-26T13:04:17.877Z,31.13
2018-05-26T13:06:47.041Z,31.08
2018-05-26T13:09:16.153Z,31.02
2018-05-26T13:11:48.856Z,31.11
2018-05-26T13:14:19.949Z,31.27
2018-05-26T13:16:49.891Z,31.38
2018-05-26T13:19:19.414Z,31.34
2018-05-26T13:21:48.510Z,31.43
2018-05-26T13:24:17.644Z,31.55
2018-05-26T13:26:46.776Z,31.66
2018-05-26T13:29:15.909Z,31.80
2018-05-26T13:31:44.988Z,31.87
2018-05-26T13:34:14.151Z,31.86
2018-05-26T13:36:44.028Z,31.74
2018-05-26T13:39:13.168Z,31.76
2018-05-26T13:41:43.028Z,31.75
2018-05-26T13:44:12.150Z,31.87
2018-05-26T13:46:41.261Z,32.02
2018-05-26T13:49:10.397Z,31.97
2018-05-26T13:51:39.578Z,31.88
2018-05-26T13:54:08.626Z,31.82
2018-05-26T13:56:38.651Z,31.87
2018-05-26T13:59:07.741Z,31.92
2018-05-26T14:01:37.801Z,31.91
2018-05-26T14:04:06.932Z,31.99
2018-05-26T14:06:36.053Z,32.15
2018-05-26T14:09:05.999Z,32.27
2018-05-26T14:11:35.905Z,32.40
2018-05-26T14:14:05.825Z,32.47
2018-05-26T14:16:35.795Z,32.59
2018-05-26T14:19:04.877Z,32.45
2018-05-26T14:21:33.955Z,32.46
2018-05-26T14:24:03.096Z,32.66
2018-05-26T14:26:32.185Z,32.67
2018-05-26T14:29:01.320Z,32.78
2018-05-26T14:31:31.198Z,32.88
2018-05-26T14:34:00.320Z,32.99
2018-05-26T14:36:30.232Z,33.13
2018-05-26T14:39:00.343Z,33.21
2018-05-26T14:41:29.515Z,33.22
2018-05-26T14:43:58.627Z,33.38
2018-05-26T14:46:27.756Z,33.45
2018-05-26T14:48:57.661Z,33.52
2018-05-26T14:51:26.799Z,33.61
2018-05-26T14:53:55.912Z,33.63
2018-05-26T14:56:25.027Z,33.62
2018-05-26T14:58:54.172Z,33.65
2018-05-26T15:01:23.316Z,33.46
2018-05-26T15:03:52.400Z,33.35
2018-05-26T15:06:21.820Z,33.15
2018-05-26T15:08:50.936Z,32.86
2018-05-26T15:11:20.040Z,32.73
2018-05-26T15:13:49.987Z,32.78
2018-05-26T15:16:19.594Z,32.81
2018-05-26T15:18:48.727Z,32.79
2018-05-26T15:21:19.830Z,32.75
2018-05-26T15:23:49.145Z,32.74
2018-05-26T15:26:19.502Z,32.73
2018-05-26T15:28:49.559Z,32.76
2018-05-26T15:31:19.619Z,32.78
2018-05-26T15:33:48.747Z,32.75
2018-05-26T15:36:17.868Z,32.68
2018-05-26T15:38:48.711Z,32.73
2018-05-26T15:41:19.853Z,32.83
2018-05-26T15:43:49.889Z,33.03
2018-05-26T15:46:19.724Z,33.25
2018-05-26T15:48:48.844Z,33.33
2018-05-26T15:51:17.926Z,33.30
2018-05-26T15:53:48.059Z,33.34
2018-05-26T15:56:17.188Z,33.35
2018-05-26T15:58:47.788Z,33.37
2018-05-26T16:01:16.917Z,33.37
2018-05-26T16:03:46.805Z,33.14
2018-05-26T16:06:15.917Z,33.09
2018-05-26T16:08:45.812Z,33.00
2018-05-26T16:11:14.943Z,32.97
2018-05-26T16:13:44.072Z,33.00
2018-05-26T16:16:13.197Z,32.97
2018-05-26T16:18:43.333Z,32.94
2018-05-26T16:21:12.453Z,32.86
2018-05-26T16:23:43.260Z,32.90
2018-05-26T16:26:12.399Z,33.03
2018-05-26T16:28:41.492Z,33.13
2018-05-26T16:31:11.591Z,33.25
2018-05-26T16:33:41.456Z,33.30
2018-05-26T16:36:10.595Z,33.18
2018-05-26T16:38:40.465Z,33.06
2018-05-26T16:41:10.626Z,32.98
2018-05-26T16:43:40.481Z,33.09
2018-05-26T16:46:09.635Z,33.22
2018-05-26T16:48:38.838Z,33.08
2018-05-26T16:51:07.940Z,33.08
2018-05-26T16:53:37.828Z,33.23
2018-05-26T16:56:06.917Z,33.34
2018-05-26T16:58:36.116Z,33.38
2018-05-26T17:01:05.164Z,33.44
2018-05-26T17:03:34.293Z,33.80
2018-05-26T17:06:03.429Z,34.23
2018-05-26T17:08:32.565Z,35.21
2018-05-26T17:11:01.662Z,36.38
2018-05-26T17:13:30.774Z,37.58
2018-05-26T17:16:00.664Z,38.34
2018-05-26T17:18:29.790Z,38.66
2018-05-26T17:20:59.658Z,39.12
2018-05-26T17:23:28.831Z,39.46
2018-05-26T17:25:57.929Z,39.71
2018-05-26T17:28:27.832Z,39.84
2018-05-26T17:30:57.001Z,39.72
2018-05-26T17:33:28.776Z,39.49
2018-05-26T17:35:57.891Z,39.47
2018-05-26T17:38:27.017Z,39.73
2018-05-26T17:40:56.863Z,39.32
2018-05-26T17:43:27.995Z,38.33
2018-05-26T17:45:57.710Z,36.90
2018-05-26T17:48:27.828Z,35.81
2018-05-26T17:50:57.848Z,34.99
2018-05-26T17:53:27.970Z,34.33
2018-05-26T17:55:58.057Z,33.88
2018-05-26T17:58:27.910Z,33.50
2018-05-26T18:00:57.029Z,33.09
2018-05-26T18:03:26.155Z,32.78
2018-05-26T18:05:56.053Z,32.50
2018-05-26T18:08:25.968Z,32.34
2018-05-26T18:10:55.086Z,32.12
2018-05-26T18:13:24.959Z,31.93
2018-05-26T18:15:55.049Z,31.74
2018-05-26T18:18:24.161Z,31.61
2018-05-26T18:20:53.247Z,31.52
2018-05-26T18:23:22.361Z,31.36
2018-05-26T18:25:51.506Z,31.32
2018-05-26T18:28:20.612Z,31.20
2018-05-26T18:30:50.918Z,31.10
2018-05-26T18:33:20.051Z,30.89
2018-05-26T18:35:49.167Z,30.81
2018-05-26T18:38:18.323Z,30.75
2018-05-26T18:40:47.514Z,30.68
2018-05-26T18:43:17.440Z,30.71
2018-05-26T18:45:47.328Z,30.66
2018-05-26T18:48:17.191Z,30.37
2018-05-26T18:50:46.363Z,30.33
2018-05-26T18:53:16.231Z,30.16
2018-05-26T18:55:45.339Z,29.89
2018-05-26T18:58:15.259Z,29.76
2018-05-26T19:00:45.174Z,29.56
2018-05-26T19:03:14.283Z,29.34
2018-05-26T19:05:44.208Z,29.14
2018-05-26T19:08:13.350Z,29.02
2018-05-26T19:10:42.468Z,28.81
2018-05-26T19:13:11.666Z,28.72
2018-05-26T19:15:40.769Z,28.55
2018-05-26T19:18:10.689Z,28.22
2018-05-26T19:20:40.571Z,27.97
2018-05-26T19:23:09.757Z,27.67
2018-05-26T19:25:38.849Z,27.27
2018-05-26T19:28:08.009Z,26.86
2018-05-26T19:30:37.897Z,26.72
2018-05-26T19:33:07.015Z,26.66
2018-05-26T19:35:36.983Z,26.58
2018-05-26T19:38:06.094Z,26.55
2018-05-26T19:40:36.034Z,26.43
2018-05-26T19:43:05.948Z,26.31
2018-05-26T19:45:35.908Z,26.25
2018-05-26T19:48:05.007Z,26.10
2018-05-26T19:50:34.091Z,26.11
2018-05-26T19:53:03.265Z,26.02
2018-05-26T19:55:32.393Z,26.04
2018-05-26T19:58:01.579Z,26.06
2018-05-26T20:00:30.676Z,26.06
2018-05-26T20:02:59.779Z,26.02
2018-05-26T20:05:28.886Z,25.75
2018-05-26T20:07:58.962Z,25.63
2018-05-26T20:10:28.872Z,25.52
2018-05-26T20:12:58.008Z,25.37
2018-05-26T20:15:28.042Z,25.32
2018-05-26T20:17:57.268Z,25.17
2018-05-26T20:20:26.400Z,25.13
2018-05-26T20:22:55.533Z,25.09
2018-05-26T20:25:24.667Z,25.10
2018-05-26T20:27:54.575Z,24.95
2018-05-26T20:30:24.470Z,24.84
2018-05-26T20:32:54.518Z,25.01
2018-05-26T20:35:24.404Z,25.04
2018-05-26T20:37:54.454Z,25.06
2018-05-26T20:40:24.313Z,24.95
2018-05-26T20:42:53.469Z,24.94
2018-05-26T20:45:23.413Z,24.69
2018-05-26T20:47:52.524Z,24.55
2018-05-26T20:50:21.630Z,24.41
2018-05-26T20:52:50.775Z,24.26
2018-05-26T20:55:20.680Z,24.24
2018-05-26T20:57:50.788Z,24.21
2018-05-26T21:00:21.615Z,24.17
2018-05-26T21:02:50.698Z,24.06
2018-05-26T21:05:19.871Z,24.13
2018-05-26T21:07:49.007Z,24.14
2018-05-26T21:10:18.132Z,24.12
2018-05-26T21:12:48.249Z,24.20
2018-05-26T21:15:18.098Z,24.38
2018-05-26T21:17:48.218Z,24.38
2018-05-26T21:20:17.340Z,24.41
2018-05-26T21:22:46.514Z,24.48
2018-05-26T21:25:15.659Z,24.54
2018-05-26T21:27:45.579Z,24.58
2018-05-26T21:30:14.693Z,24.50
2018-05-26T21:32:43.798Z,24.51
2018-05-26T21:35:12.901Z,24.45
2018-05-26T21:37:42.051Z,24.46
2018-05-26T21:40:11.226Z,24.28
2018-05-26T21:42:40.533Z,24.27
2018-05-26T21:45:10.690Z,24.20
2018-05-26T21:47:40.595Z,24.22
2018-05-26T21:50:10.548Z,24.13
2018-05-26T21:52:40.427Z,24.11
2018-05-26T21:55:10.505Z,24.05
2018-05-26T21:57:39.632Z,24.04
2018-05-26T22:00:09.483Z,23.96
2018-05-26T22:02:38.636Z,23.94
2018-05-26T22:05:07.744Z,23.76
2018-05-26T22:07:37.663Z,23.53
2018-05-26T22:10:07.527Z,23.43
2018-05-26T22:12:37.449Z,23.36
2018-05-26T22:15:06.534Z,23.10
2018-05-26T22:17:35.681Z,23.03
2018-05-26T22:20:04.794Z,22.90
2018-05-26T22:22:34.716Z,22.87
2018-05-26T22:25:03.864Z,22.88
2018-05-26T22:27:33.825Z,22.75
2018-05-26T22:30:02.978Z,22.65
2018-05-26T22:32:32.061Z,22.67
2018-05-26T22:35:01.236Z,22.64
2018-05-26T22:37:30.325Z,22.58
2018-05-26T22:39:59.453Z,22.60
2018-05-26T22:42:28.612Z,22.72
2018-05-26T22:44:57.739Z,22.82
2018-05-26T22:47:26.907Z,22.89
2018-05-26T22:49:56.999Z,22.95
2018-05-26T22:52:26.960Z,22.95
2018-05-26T22:54:56.073Z,23.05
2018-05-26T22:57:25.960Z,23.18
2018-05-26T22:59:55.057Z,23.29
2018-05-26T23:02:24.207Z,23.44
2018-05-26T23:04:53.333Z,23.48
2018-05-26T23:07:22.498Z,23.62
2018-05-26T23:09:51.830Z,23.71
2018-05-26T23:12:20.961Z,23.76
2018-05-26T23:14:50.093Z,23.85
2018-05-26T23:17:20.012Z,23.81
2018-05-26T23:19:49.401Z,23.81
2018-05-26T23:22:18.541Z,23.77
2018-05-26T23:24:47.715Z,23.76
2018-05-26T23:27:17.581Z,23.74
2018-05-26T23:29:46.715Z,23.70
2018-05-26T23:32:16.677Z,23.63
2018-05-26T23:34:46.780Z,23.65
2018-05-26T23:37:16.653Z,23.77
2018-05-26T23:39:45.777Z,23.74
2018-05-26T23:42:14.905Z,23.82
2018-05-26T23:44:44.782Z,24.03
2018-05-26T23:47:14.734Z,24.06
2018-05-26T23:49:43.927Z,23.97
2018-05-26T23:52:13.036Z,23.90
2018-05-26T23:54:42.165Z,23.83
2018-05-26T23:57:12.085Z,23.77
2018-05-26T23:59:41.202Z,23.70
